CYAW/YAW METAR and TAF weather

Enter ICAO airport designator
Station Type Date Time Source
CYAW METAR 2019/08/21 02:00 UTC NOAA

CYAW 210200Z 30003KT 15SM SKC 22/14 A3002 RMK DA1069FT LAST OBS/NXT 211400 UTC SLP167


Station Type Date Time Source
CYAW Decoded METAR 2019/08/21 02:00 UTC NOAA

Station name not available
Aug 20, 2019 - 10:00 PM EDT / 2019.08.21 0200 UTC
Wind: from the WNW (300 degrees) at 3 MPH (3 KT):0
Visibility: 15 mile(s):0
Sky conditions: clear
Temperature: 71 F (22 C)
Dew Point: 57 F (14 C)
Relative Humidity: 60%
Pressure (altimeter): 30.02 in. Hg (1016 hPa)
ob: CYAW 210200Z 30003KT 15SM SKC 22/14 A3002 RMK DA1069FT LAST OBS/NXT 211400 UTC SLP167
cycle: 2

Station Type Date Time Source
CYAW TAF 2019/08/21 00:21 UTC NOAA

TAF
AMD TAF
AMD CYAW 210217Z 2100/2106 FCST CNCLD DUE END OF FLYING PROGRAM
RMK NXT FCST WILL BE ISSUED AT 211515Z

Example: see airport list